Afton, Michigan
Current Conditions -  °F | °C
As of 9:38 AM on Sunday 23 Nov 2014 (Local Time) from KSLH Reporting Station
Haze Haze  
Wind Chill:   Ceiling: 300
Heat Index:   Visibility: 0.75mi
Dew Point:   Wind: 7mph
Humidity: 100%   Direction: 170°S
Pressure: 29.72"   Gusts: NA
Location:  45.36°N, 84.47°W
Report Text: KSLH 231438Z AUTO 17006KT 3/4SM BR OVC003 05/05 A2972 RMK AO2 T00510051
Loading
Personal Weather Stations






























Interactive Weather Map New forecast layout! Learn more

10-Day Weather Forecast

Advertisements
Track Severe Weather on mobile